Time;durP1;ratioP1;P1;durP2;ratioP2;P2;SDS_P1;SDS_P2;PMS_P1;PMS_P2;Temp;Humidity;BMP_temperature;BMP_pressure;BME280_temperature;BME280_humidity;BME280_pressure;Samples;Min_cycle;Max_cycle;Signal;HPM_P1;HPM_P2
2021/05/20 00:00:19;;;;;;;2.58;0.88;;;;;;;20.07;48.06;100695.88;5050307;28;20083;-64
2021/05/20 00:02:47;;;;;;;2.63;0.68;;;;;;;20.08;47.99;100682.44;5050489;28;20033;-64
2021/05/20 00:05:16;;;;;;;3.50;0.90;;;;;;;19.90;48.19;100689.13;5051196;28;20152;-65
2021/05/20 00:07:44;;;;;;;3.60;0.93;;;;;;;19.89;48.46;100683.78;5050144;28;20112;-65
2021/05/20 00:10:13;;;;;;;3.97;0.77;;;;;;;20.00;48.20;100694.25;5050244;28;20126;-65
2021/05/20 00:12:40;;;;;;;3.92;0.90;;;;;;;19.99;48.03;100687.13;5050017;28;20041;-65
2021/05/20 00:15:08;;;;;;;2.60;1.20;;;;;;;19.96;48.00;100685.41;5039094;28;20039;-64
2021/05/20 00:17:35;;;;;;;6.88;0.90;;;;;;;19.90;47.94;100683.75;5049320;28;20523;-65
2021/05/20 00:20:03;;;;;;;2.17;1.20;;;;;;;19.93;48.05;100682.81;5050644;28;20401;-65
2021/05/20 00:22:31;;;;;;;4.55;1.08;;;;;;;19.96;48.12;100684.50;5048708;28;20490;-65
2021/05/20 00:24:57;;;;;;;3.25;0.85;;;;;;;19.97;48.03;100683.59;5049379;28;20437;-65
2021/05/20 00:27:24;;;;;;;2.75;0.82;;;;;;;19.83;48.31;100681.25;5049657;28;20044;-64
2021/05/20 00:29:51;;;;;;;4.25;1.15;;;;;;;19.76;48.58;100683.19;5050075;28;20037;-65
2021/05/20 00:32:18;;;;;;;4.15;0.93;;;;;;;19.64;48.88;100687.94;5049730;28;20032;-65
2021/05/20 00:34:46;;;;;;;3.78;0.90;;;;;;;19.63;49.00;100691.53;5049571;28;20545;-65
2021/05/20 00:37:13;;;;;;;3.95;1.00;;;;;;;19.70;48.76;100688.69;5049985;28;20048;-66
2021/05/20 00:39:41;;;;;;;4.97;0.80;;;;;;;19.73;48.65;100690.44;5050187;28;20128;-65
2021/05/20 00:42:09;;;;;;;2.88;0.80;;;;;;;19.73;48.55;100698.47;5049418;28;20037;-64
2021/05/20 00:44:53;;;;;;;2.08;0.85;;;;;;;19.75;48.39;100694.84;5050239;28;20043;-64
2021/05/20 00:47:20;;;;;;;1.90;0.80;;;;;;;19.78;48.33;100701.91;5050324;28;20055;-65
2021/05/20 00:49:47;;;;;;;5.32;1.10;;;;;;;19.73;48.20;100702.03;5049736;28;20433;-65
2021/05/20 00:52:15;;;;;;;4.38;0.90;;;;;;;19.64;48.61;100696.88;5049497;28;20045;-65
2021/05/20 00:54:43;;;;;;;3.22;1.08;;;;;;;19.50;48.80;100689.16;5049644;28;20033;-64
2021/05/20 00:57:11;;;;;;;3.92;0.90;;;;;;;19.39;49.28;100685.78;5049582;28;20453;-65
2021/05/20 00:59:38;;;;;;;3.58;1.20;;;;;;;19.42;49.28;100685.75;5049117;28;20029;-65
2021/05/20 01:02:05;;;;;;;4.55;0.90;;;;;;;19.44;49.15;100688.38;5048886;28;20041;-65
2021/05/20 01:04:32;;;;;;;3.60;1.20;;;;;;;19.47;49.04;100685.66;5049072;28;20037;-64
2021/05/20 01:06:59;;;;;;;3.60;1.00;;;;;;;19.43;48.98;100692.84;5049772;28;20040;-64
2021/05/20 01:09:26;;;;;;;2.85;1.00;;;;;;;19.31;49.39;100687.75;5048931;28;20036;-65
2021/05/20 01:11:55;;;;;;;3.38;0.80;;;;;;;19.25;49.62;100681.66;5048973;28;20831;-64
2021/05/20 01:14:22;;;;;;;1.88;0.77;;;;;;;19.07;50.04;100674.91;5049091;28;20133;-65
2021/05/20 01:16:49;;;;;;;4.72;0.88;;;;;;;19.11;50.20;100665.88;5049106;28;20040;-65
2021/05/20 01:19:16;;;;;;;4.57;1.20;;;;;;;19.26;49.64;100662.88;5048361;28;20029;-64
2021/05/20 01:21:45;;;;;;;4.65;1.00;;;;;;;19.41;48.98;100654.53;5033223;28;20037;-65
2021/05/20 01:24:12;;;;;;;6.55;0.80;;;;;;;19.47;48.71;100653.53;5049185;28;20069;-65
2021/05/20 01:26:40;;;;;;;5.53;1.10;;;;;;;19.46;48.71;100643.75;5049140;28;20124;-65
2021/05/20 01:29:08;;;;;;;5.57;0.95;;;;;;;19.31;48.89;100636.00;5049001;28;20587;-65
2021/05/20 01:31:35;;;;;;;4.85;0.85;;;;;;;19.22;49.25;100628.19;5048615;28;20393;-67
2021/05/20 01:34:02;;;;;;;2.97;1.10;;;;;;;19.08;49.65;100629.38;5049233;28;20043;-65
2021/05/20 01:36:31;;;;;;;2.50;0.98;;;;;;;19.10;49.77;100624.84;5049444;28;20041;-65
2021/05/20 01:39:01;;;;;;;5.50;0.98;;;;;;;19.10;49.82;100618.63;5048098;28;20127;-64
2021/05/20 01:41:29;;;;;;;5.45;1.05;;;;;;;19.02;49.84;100617.94;5028926;28;20047;-64
2021/05/20 01:43:56;;;;;;;5.30;1.00;;;;;;;18.98;49.81;100618.88;5040693;28;20052;-64
2021/05/20 01:46:24;;;;;;;5.20;1.00;;;;;;;18.87;50.17;100613.78;5048686;28;20055;-65
2021/05/20 01:48:53;;;;;;;3.15;0.90;;;;;;;18.83;50.30;100612.09;5048715;28;20048;-64
2021/05/20 01:51:21;;;;;;;2.85;1.15;;;;;;;18.83;50.37;100619.22;5047931;28;20143;-65
2021/05/20 01:53:50;;;;;;;5.07;1.27;;;;;;;18.92;50.16;100608.31;5048165;28;20098;-64
2021/05/20 01:56:20;;;;;;;6.07;1.20;;;;;;;18.98;50.03;100603.72;5049136;28;20163;-65
2021/05/20 01:58:49;;;;;;;5.97;0.93;;;;;;;18.95;49.97;100606.47;5048761;28;20037;-65
2021/05/20 02:01:16;;;;;;;3.85;0.85;;;;;;;18.95;49.87;100593.09;5046350;28;20037;-64
2021/05/20 02:03:43;;;;;;;3.38;1.33;;;;;;;18.99;49.99;100592.09;5048629;28;20514;-64
2021/05/20 02:06:10;;;;;;;3.05;0.88;;;;;;;19.04;49.95;100595.56;5048377;28;20045;-64
2021/05/20 02:08:38;;;;;;;5.30;0.93;;;;;;;19.09;49.90;100588.34;5048428;28;20069;-65
2021/05/20 02:11:07;;;;;;;4.60;0.95;;;;;;;19.10;49.97;100592.75;5048362;28;20041;-65
2021/05/20 02:13:36;;;;;;;3.35;0.95;;;;;;;19.07;50.17;100576.78;5047199;28;20103;-64
2021/05/20 02:16:04;;;;;;;2.85;0.75;;;;;;;19.13;49.88;100588.25;5047563;28;20040;-64
2021/05/20 02:18:31;;;;;;;5.15;1.20;;;;;;;19.07;50.17;100584.78;5048962;28;20045;-64
2021/05/20 02:20:58;;;;;;;4.25;0.88;;;;;;;19.10;49.95;100582.03;5040403;28;20041;-64
2021/05/20 02:23:25;;;;;;;3.90;0.88;;;;;;;19.14;49.99;100580.19;5048316;28;20044;-64
2021/05/20 02:25:52;;;;;;;4.55;0.90;;;;;;;19.14;49.89;100577.50;5048662;28;20033;-65
2021/05/20 02:28:19;;;;;;;2.47;1.05;;;;;;;19.05;50.16;100593.75;5047550;28;20041;-64
2021/05/20 02:30:48;;;;;;;6.63;1.05;;;;;;;19.06;50.23;100595.53;5045917;28;20047;-64
2021/05/20 02:33:15;;;;;;;2.25;0.90;;;;;;;19.09;50.28;100604.38;5052625;28;20040;-64
2021/05/20 02:35:42;;;;;;;4.50;1.05;;;;;;;19.11;50.16;100617.72;5052085;28;20127;-65
2021/05/20 02:38:09;;;;;;;3.72;0.90;;;;;;;19.09;50.20;100608.84;5052192;28;20045;-65
2021/05/20 02:40:37;;;;;;;5.43;1.17;;;;;;;19.08;50.20;100610.66;5048343;28;20040;-64
2021/05/20 02:43:04;;;;;;;4.03;1.17;;;;;;;19.20;50.23;100613.97;5051596;28;20041;-65
2021/05/20 02:45:31;;;;;;;5.00;1.08;;;;;;;19.18;50.21;100610.44;5052848;28;20032;-64
2021/05/20 02:48:00;;;;;;;3.00;0.80;;;;;;;19.10;50.33;100618.63;5052188;28;20191;-64
2021/05/20 02:50:27;;;;;;;4.32;1.17;;;;;;;19.06;50.35;100616.94;5047895;28;20049;-65
2021/05/20 02:52:54;;;;;;;3.33;1.10;;;;;;;19.08;50.46;100626.69;5051581;28;20041;-64
2021/05/20 02:55:23;;;;;;;4.43;1.45;;;;;;;19.09;50.46;100627.59;5029901;28;20040;-64
2021/05/20 02:57:52;;;;;;;3.67;1.15;;;;;;;19.10;50.62;100623.97;5031719;28;20049;-64
2021/05/20 03:00:21;;;;;;;6.07;1.13;;;;;;;19.03;50.84;100633.91;5031887;28;20049;-65
2021/05/20 03:02:48;;;;;;;4.85;1.15;;;;;;;18.94;51.09;100641.28;5032108;28;20042;-64
2021/05/20 03:05:18;;;;;;;1.73;1.13;;;;;;;18.90;51.36;100648.50;5031022;28;20497;-65
2021/05/20 03:07:45;;;;;;;5.57;1.05;;;;;;;18.83;51.37;100652.22;5050041;28;20037;-64
2021/05/20 03:10:13;;;;;;;3.78;1.30;;;;;;;18.83;51.54;100667.38;5051807;28;20067;-65
2021/05/20 03:12:40;;;;;;;5.53;0.65;;;;;;;18.74;51.12;100675.56;5051895;28;20065;-65
2021/05/20 03:15:08;;;;;;;2.80;0.93;;;;;;;18.59;51.04;100690.97;5051221;28;20083;-65
2021/05/20 03:17:36;;;;;;;2.30;0.85;;;;;;;18.50;50.97;100701.81;5051066;28;20044;-65
2021/05/20 03:20:05;;;;;;;5.78;1.70;;;;;;;18.50;50.82;100716.97;5051175;28;20120;-65
2021/05/20 03:22:33;;;;;;;3.70;0.90;;;;;;;18.52;50.74;100718.69;5051613;28;20379;-65
2021/05/20 03:25:00;;;;;;;4.72;0.88;;;;;;;18.61;50.62;100721.25;5050881;28;20037;-65
2021/05/20 03:27:27;;;;;;;5.03;0.93;;;;;;;18.78;50.62;100720.94;5050665;28;20036;-64
2021/05/20 03:29:54;;;;;;;13.65;2.13;;;;;;;18.88;50.70;100725.22;5050794;28;20041;-65
2021/05/20 03:32:21;;;;;;;5.93;1.35;;;;;;;18.99;50.68;100733.91;5051620;28;20136;-64
2021/05/20 03:34:48;;;;;;;5.43;1.10;;;;;;;19.05;50.79;100730.22;5050578;28;20075;-65
2021/05/20 03:37:15;;;;;;;8.50;1.38;;;;;;;19.08;51.08;100722.16;5050897;28;20093;-64
2021/05/20 03:39:43;;;;;;;5.55;1.05;;;;;;;19.26;50.63;100718.22;5051095;28;20080;-65
2021/05/20 03:42:11;;;;;;;3.95;0.90;;;;;;;19.36;50.54;100722.47;5051304;28;20182;-64
2021/05/20 03:44:38;;;;;;;6.80;0.95;;;;;;;19.47;50.68;100724.03;5050705;28;20041;-64
2021/05/20 03:47:06;;;;;;;4.45;1.02;;;;;;;19.67;50.90;100733.44;5051605;28;20129;-65
2021/05/20 03:49:32;;;;;;;4.43;0.93;;;;;;;19.81;50.81;100736.69;5050890;28;20041;-64
2021/05/20 03:52:00;;;;;;;5.50;1.10;;;;;;;19.90;50.93;100734.66;5050511;28;20040;-64
2021/05/20 03:54:27;;;;;;;5.40;0.88;;;;;;;20.09;50.83;100735.09;5050258;28;20041;-64
2021/05/20 03:56:55;;;;;;;5.88;1.10;;;;;;;20.28;50.60;100731.06;5051210;28;20049;-64
2021/05/20 03:59:22;;;;;;;5.47;0.93;;;;;;;20.45;50.26;100727.13;5050156;28;20044;-65
2021/05/20 04:01:49;;;;;;;6.10;1.25;;;;;;;20.61;50.05;100740.09;5047198;28;20041;-65
2021/05/20 04:04:16;;;;;;;4.75;1.10;;;;;;;20.79;49.86;100730.69;5050643;28;20037;-64
2021/05/20 04:06:43;;;;;;;4.30;0.90;;;;;;;20.89;49.30;100736.69;5049596;28;20062;-65
2021/05/20 04:09:10;;;;;;;1.95;0.98;;;;;;;20.94;48.35;100734.75;5031007;28;20091;-65
2021/05/20 04:11:37;;;;;;;3.53;1.02;;;;;;;20.98;48.55;100729.28;5048169;28;20362;-65
2021/05/20 04:14:06;;;;;;;4.20;0.80;;;;;;;21.21;48.65;100723.28;5050043;28;20047;-65
2021/05/20 04:16:33;;;;;;;3.92;0.82;;;;;;;21.48;48.43;100722.47;5050925;28;20045;-65
2021/05/20 04:19:01;;;;;;;5.40;1.17;;;;;;;21.74;48.45;100736.91;5048334;28;20449;-65
2021/05/20 04:21:28;;;;;;;3.45;0.80;;;;;;;21.91;48.25;100726.53;5049602;28;20040;-65
2021/05/20 04:23:56;;;;;;;3.38;0.77;;;;;;;22.07;47.99;100724.25;5049819;28;20098;-65
2021/05/20 04:26:23;;;;;;;3.00;0.80;;;;;;;22.22;47.94;100713.91;5050005;28;20045;-65
2021/05/20 04:28:51;;;;;;;6.43;0.70;;;;;;;22.55;47.37;100714.56;5049955;28;20052;-65
2021/05/20 04:31:19;;;;;;;3.20;0.68;;;;;;;22.85;46.42;100714.44;5050120;28;20816;-65
2021/05/20 04:33:46;;;;;;;5.53;1.35;;;;;;;23.08;45.96;100709.13;5050339;28;20117;-65
2021/05/20 04:36:14;;;;;;;2.65;0.80;;;;;;;23.28;45.23;100716.47;5050107;28;20120;-65
2021/05/20 04:38:41;;;;;;;4.30;1.02;;;;;;;23.50;44.88;100717.41;5049670;28;20572;-65
2021/05/20 04:41:08;;;;;;;2.67;0.70;;;;;;;23.68;44.39;100719.44;5049595;28;20041;-65
2021/05/20 04:43:35;;;;;;;6.88;0.95;;;;;;;23.86;44.07;100720.50;5050347;28;20033;-65
2021/05/20 04:46:02;;;;;;;3.20;0.70;;;;;;;24.23;43.41;100719.91;5050629;28;20033;-65
2021/05/20 04:48:31;;;;;;;3.97;0.70;;;;;;;24.52;42.95;100716.88;5049723;28;20041;-65
2021/05/20 04:51:00;;;;;;;7.47;1.35;;;;;;;24.78;42.17;100715.75;5050015;28;20045;-64
2021/05/20 04:53:28;;;;;;;4.47;1.02;;;;;;;24.98;41.59;100715.81;5049857;28;20045;-65
2021/05/20 04:55:55;;;;;;;3.50;1.02;;;;;;;25.26;41.24;100704.63;5048865;28;20045;-65
2021/05/20 04:58:22;;;;;;;6.70;0.82;;;;;;;25.72;40.71;100718.72;5049258;28;20084;-65
2021/05/20 05:00:49;;;;;;;3.83;1.00;;;;;;;26.04;39.97;100707.22;5049398;28;20071;-65
2021/05/20 05:03:16;;;;;;;7.80;1.05;;;;;;;26.46;38.84;100706.03;5049229;28;20461;-65
2021/05/20 05:05:45;;;;;;;2.78;0.85;;;;;;;26.79;38.30;100703.41;5049651;28;20051;-65
2021/05/20 05:08:12;;;;;;;3.95;0.90;;;;;;;26.87;37.85;100715.63;5049048;28;20037;-65
2021/05/20 05:10:39;;;;;;;4.40;0.80;;;;;;;26.95;37.77;100715.25;5049707;28;20037;-65
2021/05/20 05:13:06;;;;;;;2.83;0.70;;;;;;;27.15;37.16;100711.47;5049605;28;20041;-65
2021/05/20 05:15:34;;;;;;;3.90;0.70;;;;;;;27.35;36.79;100716.69;5049201;28;20037;-65
2021/05/20 05:18:01;;;;;;;7.00;1.23;;;;;;;27.64;36.21;100732.25;5049382;28;20044;-64
2021/05/20 05:20:28;;;;;;;3.20;1.15;;;;;;;27.99;35.19;100738.44;5049441;28;20098;-65
2021/05/20 05:22:56;;;;;;;4.93;0.63;;;;;;;28.37;34.78;100733.53;5049112;28;20048;-64
2021/05/20 05:25:23;;;;;;;4.22;1.20;;;;;;;28.62;34.01;100726.66;5049327;28;20403;-65
2021/05/20 05:27:50;;;;;;;3.92;0.80;;;;;;;28.90;32.86;100732.19;5049009;28;20051;-65
2021/05/20 05:30:18;;;;;;;2.67;0.77;;;;;;;29.16;32.66;100733.31;5049181;28;20086;-65
2021/05/20 05:32:45;;;;;;;1.80;0.60;;;;;;;29.31;32.34;100730.53;5048730;28;20037;-65
2021/05/20 05:35:12;;;;;;;2.63;0.70;;;;;;;29.50;31.66;100741.16;5049355;28;20037;-65
2021/05/20 05:37:39;;;;;;;3.25;0.77;;;;;;;29.69;31.88;100740.84;5048750;28;20041;-65
2021/05/20 05:40:09;;;;;;;6.20;1.40;;;;;;;29.87;31.26;100742.38;5049225;28;20044;-65
2021/05/20 05:42:36;;;;;;;3.50;0.75;;;;;;;30.03;31.34;100740.47;5049294;28;20043;-65
2021/05/20 05:45:04;;;;;;;5.10;0.85;;;;;;;30.15;30.88;100746.06;5049449;28;20045;-65
2021/05/20 05:47:31;;;;;;;2.88;0.80;;;;;;;30.17;31.06;100744.13;5048836;28;20037;-65
2021/05/20 05:50:04;;;;;;;4.40;0.85;;;;;;;30.25;30.54;100753.53;5049101;28;20037;-65
2021/05/20 05:52:32;;;;;;;7.80;1.15;;;;;;;30.38;30.22;100749.03;5048946;28;20052;-65
2021/05/20 05:54:59;;;;;;;3.03;0.80;;;;;;;30.26;29.93;100755.25;5047499;28;20036;-65
2021/05/20 05:57:27;;;;;;;6.00;1.00;;;;;;;30.33;30.34;100753.88;5048633;28;20064;-65
2021/05/20 05:59:54;;;;;;;4.93;0.93;;;;;;;30.20;30.27;100747.50;5048849;28;20390;-66
2021/05/20 06:02:23;;;;;;;3.72;0.85;;;;;;;30.38;29.63;100750.88;5049094;28;20498;-65
2021/05/20 06:04:50;;;;;;;3.08;0.90;;;;;;;30.40;28.98;100755.22;5047135;28;20124;-65
2021/05/20 06:07:18;;;;;;;5.22;0.82;;;;;;;30.50;29.30;100760.97;5053279;28;20692;-65
2021/05/20 06:09:45;;;;;;;3.67;0.75;;;;;;;30.56;29.24;100752.38;5053207;28;20112;-65
2021/05/20 06:12:12;;;;;;;6.38;1.02;;;;;;;30.75;29.10;100752.88;5052939;28;20110;-65
2021/05/20 06:14:41;;;;;;;5.85;1.00;;;;;;;30.82;29.19;100764.25;5049649;28;20041;-65
2021/05/20 06:17:08;;;;;;;3.22;0.63;;;;;;;30.85;29.21;100769.50;5051241;28;20061;-65
2021/05/20 06:19:35;;;;;;;4.03;1.00;;;;;;;30.89;29.10;100766.44;5052798;28;20116;-65
2021/05/20 06:22:02;;;;;;;5.38;1.08;;;;;;;31.09;28.68;100769.69;5053188;28;20112;-65
2021/05/20 06:24:29;;;;;;;4.75;0.70;;;;;;;31.15;28.98;100766.50;5043708;28;20513;-65
2021/05/20 06:26:56;;;;;;;4.45;0.90;;;;;;;31.14;28.81;100760.19;5032476;28;20063;-65
2021/05/20 06:29:23;;;;;;;3.90;0.70;;;;;;;31.13;29.00;100758.44;5032808;28;20033;-65
2021/05/20 06:31:52;;;;;;;4.57;0.90;;;;;;;31.09;29.12;100756.91;5032850;28;20103;-65
2021/05/20 06:34:20;;;;;;;2.17;0.82;;;;;;;31.14;28.83;100762.03;5033532;28;20041;-65
2021/05/20 06:36:47;;;;;;;3.28;0.80;;;;;;;31.18;28.66;100761.69;5032650;28;20067;-65
2021/05/20 06:39:14;;;;;;;4.22;0.82;;;;;;;31.45;28.16;100755.28;5032587;28;20443;-65
2021/05/20 06:41:41;;;;;;;5.47;1.20;;;;;;;31.38;27.90;100760.28;5032566;28;20033;-65
2021/05/20 06:44:08;;;;;;;4.18;0.90;;;;;;;31.22;28.31;100760.53;5034957;28;20124;-65
2021/05/20 06:46:36;;;;;;;7.20;1.05;;;;;;;31.17;28.63;100757.25;5051520;28;20037;-65
2021/05/20 06:49:07;;;;;;;3.25;0.90;;;;;;;31.13;28.26;100758.44;5052841;28;20037;-65
2021/05/20 06:51:34;;;;;;;3.53;0.85;;;;;;;31.20;28.24;100754.28;5050420;28;20137;-65
2021/05/20 06:54:01;;;;;;;3.83;0.65;;;;;;;31.15;28.82;100752.88;5050708;28;20196;-65
2021/05/20 06:56:29;;;;;;;3.65;0.75;;;;;;;31.16;28.90;100752.78;5052421;28;20033;-65
2021/05/20 07:01:46;;;;;;;6.10;1.13;;;;;;;31.38;28.92;100757.56;5050334;28;20620;-65
2021/05/20 07:04:14;;;;;;;7.22;1.20;;;;;;;31.22;29.16;100763.25;5039496;28;20033;-65
2021/05/20 07:06:41;;;;;;;4.53;0.77;;;;;;;30.91;28.85;100762.75;5050366;28;20451;-65
2021/05/20 07:09:09;;;;;;;5.22;1.00;;;;;;;31.06;29.03;100765.28;5047108;28;20044;-65
2021/05/20 07:11:36;;;;;;;4.35;0.98;;;;;;;31.14;29.03;100770.22;5051112;28;20041;-65
2021/05/20 07:14:04;;;;;;;4.22;0.80;;;;;;;31.05;28.92;100771.72;5050633;28;20033;-65
2021/05/20 07:16:32;;;;;;;2.83;0.80;;;;;;;31.17;28.96;100775.47;5045863;28;20041;-65
2021/05/20 07:19:00;;;;;;;3.20;0.68;;;;;;;31.27;28.64;100768.38;5049614;28;20091;-65
2021/05/20 07:21:28;;;;;;;3.63;1.00;;;;;;;31.53;28.46;100764.66;5051637;28;20673;-65
2021/05/20 07:23:56;;;;;;;6.10;0.75;;;;;;;31.62;28.39;100764.06;5050164;28;20056;-65
2021/05/20 07:26:23;;;;;;;4.90;0.80;;;;;;;31.67;28.27;100764.59;5051723;28;20135;-65
2021/05/20 07:28:50;;;;;;;4.40;0.68;;;;;;;31.72;28.14;100760.63;5051353;28;20512;-65
2021/05/20 07:31:16;;;;;;;7.18;0.82;;;;;;;31.71;28.13;100761.63;5051807;28;20045;-65
2021/05/20 07:33:43;;;;;;;3.10;0.60;;;;;;;31.52;28.65;100760.19;5049772;28;20045;-65
2021/05/20 07:36:11;;;;;;;2.60;1.00;;;;;;;31.47;28.50;100762.38;5051313;28;20045;-65
2021/05/20 07:38:40;;;;;;;2.92;0.77;;;;;;;31.34;28.90;100763.38;5051539;28;20048;-64
2021/05/20 07:41:07;;;;;;;3.42;1.00;;;;;;;31.22;29.27;100757.81;5051212;28;20102;-65
2021/05/20 07:43:34;;;;;;;4.55;0.90;;;;;;;31.26;29.19;100762.03;5047773;28;20044;-66
2021/05/20 07:46:01;;;;;;;5.72;1.00;;;;;;;31.24;28.97;100766.72;5051925;28;20037;-65
2021/05/20 07:48:32;;;;;;;3.83;0.90;;;;;;;31.07;29.29;100775.22;5051447;28;20129;-65
2021/05/20 07:51:00;;;;;;;3.95;0.80;;;;;;;30.90;29.28;100767.31;5051097;28;20412;-65
2021/05/20 07:53:27;;;;;;;3.55;0.70;;;;;;;30.80;29.22;100764.34;5049435;28;20125;-65
2021/05/20 07:55:55;;;;;;;4.65;0.80;;;;;;;30.65;28.87;100778.16;5050934;28;20025;-65
2021/05/20 07:58:23;;;;;;;2.88;0.60;;;;;;;30.75;29.15;100779.25;5049483;28;20557;-66
2021/05/20 08:00:50;;;;;;;6.10;1.02;;;;;;;30.77;29.35;100789.09;5051126;28;20033;-65
2021/05/20 08:03:24;;;;;;;5.10;0.75;;;;;;;30.68;29.70;100791.56;5045691;28;20041;-65
2021/05/20 08:05:58;;;;;;;4.20;1.25;;;;;;;30.69;28.97;100796.03;5030963;28;20414;-65
2021/05/20 08:08:30;;;;;;;3.05;0.60;;;;;;;30.79;29.03;100802.59;5031279;28;20053;-65
2021/05/20 08:11:02;;;;;;;6.07;1.08;;;;;;;30.89;28.22;100803.75;5030719;28;20125;-65
2021/05/20 08:13:29;;;;;;;4.80;0.98;;;;;;;30.82;28.32;100797.84;5050680;28;20037;-65
2021/05/20 08:15:56;;;;;;;2.15;0.80;;;;;;;31.24;27.73;100798.63;5050938;28;20132;-65
2021/05/20 08:18:23;;;;;;;3.17;0.73;;;;;;;31.34;26.99;100810.63;5050601;28;20039;-65
2021/05/20 08:20:51;;;;;;;6.32;1.30;;;;;;;31.12;27.14;100805.78;5050698;28;20049;-65
2021/05/20 08:23:18;;;;;;;4.28;0.90;;;;;;;30.89;27.41;100811.94;5050155;28;20045;-65
2021/05/20 08:25:45;;;;;;;4.18;0.80;;;;;;;30.86;27.89;100814.84;5050427;28;20482;-65
2021/05/20 08:28:14;;;;;;;5.00;0.70;;;;;;;31.12;27.00;100818.53;5050436;28;20068;-65
2021/05/20 08:30:41;;;;;;;2.65;0.82;;;;;;;30.96;27.40;100820.56;5050055;28;20132;-65
2021/05/20 08:33:08;;;;;;;3.00;0.70;;;;;;;30.94;27.29;100830.69;5050253;28;20383;-65
2021/05/20 08:35:36;;;;;;;2.95;0.88;;;;;;;30.94;26.97;100830.69;5050236;28;20064;-66
2021/05/20 08:38:03;;;;;;;4.88;0.90;;;;;;;30.96;26.54;100826.03;5050987;28;20036;-65
2021/05/20 08:40:31;;;;;;;3.85;0.80;;;;;;;31.16;26.62;100828.28;5050166;28;20077;-65
2021/05/20 08:42:59;;;;;;;2.33;0.63;;;;;;;31.29;26.44;100829.19;5050180;28;20523;-65
2021/05/20 08:45:29;;;;;;;2.40;0.65;;;;;;;31.53;26.42;100837.50;5049549;28;20033;-65
2021/05/20 08:47:57;;;;;;;4.45;0.95;;;;;;;31.53;26.32;100832.03;5049982;28;20120;-65
2021/05/20 08:50:25;;;;;;;3.70;0.70;;;;;;;31.44;26.20;100830.81;5050286;28;20494;-65
2021/05/20 08:52:52;;;;;;;3.42;0.90;;;;;;;31.50;25.94;100824.09;5049809;28;20048;-65
2021/05/20 08:55:21;;;;;;;2.63;0.75;;;;;;;31.71;25.52;100827.16;5049792;28;20658;-65
2021/05/20 08:57:49;;;;;;;4.32;0.90;;;;;;;31.82;25.48;100827.28;5050208;28;20470;-65
2021/05/20 09:00:19;;;;;;;5.68;1.30;;;;;;;32.06;24.89;100825.50;5049514;28;20119;-65
2021/05/20 09:02:48;;;;;;;2.58;0.80;;;;;;;32.32;24.45;100827.22;5049970;28;20037;-65
2021/05/20 09:05:17;;;;;;;5.72;1.02;;;;;;;32.25;24.04;100830.50;5049638;28;20593;-65
2021/05/20 09:07:50;;;;;;;7.03;1.23;;;;;;;32.11;22.77;100823.28;5049768;28;20261;-65
2021/05/20 09:10:24;;;;;;;3.08;0.70;;;;;;;32.28;22.70;100820.25;5049767;28;20521;-65
2021/05/20 09:12:52;;;;;;;2.65;0.93;;;;;;;32.48;23.05;100824.22;5049493;28;20072;-66
2021/05/20 09:15:25;;;;;;;3.17;0.50;;;;;;;32.36;22.56;100822.41;5049066;28;20075;-65
2021/05/20 09:17:53;;;;;;;3.83;0.70;;;;;;;32.29;22.72;100822.00;5049704;28;20084;-66
2021/05/20 09:20:22;;;;;;;3.00;0.50;;;;;;;32.29;23.31;100832.06;5049693;28;20505;-65
2021/05/20 09:23:04;;;;;;;1.63;0.57;;;;;;;32.31;23.15;100830.06;5048706;28;20041;-66
2021/05/20 09:25:33;;;;;;;2.20;0.93;;;;;;;31.92;23.25;100831.97;5049683;28;20378;-66
2021/05/20 09:28:01;;;;;;;5.45;0.88;;;;;;;31.82;23.43;100828.16;5049378;28;20041;-65
2021/05/20 09:30:29;;;;;;;1.92;0.60;;;;;;;31.99;23.30;100825.06;5049385;28;20725;-66
2021/05/20 09:32:59;;;;;;;3.55;0.90;;;;;;;32.20;22.84;100819.94;5048980;28;20094;-65
2021/05/20 09:35:27;;;;;;;4.03;0.70;;;;;;;32.37;23.10;100814.06;5048588;28;20404;-66
2021/05/20 09:37:58;;;;;;;5.90;1.23;;;;;;;32.51;22.85;100820.38;5049331;28;20053;-65
2021/05/20 09:40:27;;;;;;;3.40;0.75;;;;;;;32.62;23.07;100818.59;5049023;28;20114;-65
2021/05/20 09:42:55;;;;;;;2.20;0.60;;;;;;;32.66;23.23;100820.09;5049180;28;20039;-66
2021/05/20 09:45:24;;;;;;;4.18;1.15;;;;;;;32.76;23.24;100815.69;5049317;28;20112;-65
2021/05/20 09:47:51;;;;;;;2.78;0.50;;;;;;;32.64;23.29;100818.47;5048423;28;20501;-66
2021/05/20 09:50:22;;;;;;;3.92;0.60;;;;;;;32.44;23.58;100812.63;5048769;28;20040;-66
2021/05/20 09:52:49;;;;;;;3.00;0.90;;;;;;;31.90;24.69;100813.97;5049240;28;20041;-66
2021/05/20 09:55:23;;;;;;;2.47;0.50;;;;;;;31.69;25.04;100808.19;5049323;28;20045;-65
2021/05/20 09:57:51;;;;;;;5.10;0.80;;;;;;;31.66;25.05;100800.19;5048587;28;20033;-65
2021/05/20 10:00:21;;;;;;;3.83;0.90;;;;;;;31.73;24.71;100804.22;5049074;28;20060;-65
2021/05/20 10:03:00;;;;;;;4.53;0.88;;;;;;;32.00;25.14;100812.28;5048867;28;20067;-65
2021/05/20 10:05:31;;;;;;;2.25;0.63;;;;;;;32.08;24.87;100807.16;5049328;28;20041;-65
2021/05/20 10:07:59;;;;;;;3.28;0.60;;;;;;;31.84;24.84;100809.78;5048731;28;20501;-65
2021/05/20 10:10:27;;;;;;;2.90;0.70;;;;;;;31.84;25.04;100800.72;5048803;28;20063;-65
2021/05/20 10:12:55;;;;;;;7.80;1.00;;;;;;;31.86;25.47;100810.56;5048265;28;20125;-66
2021/05/20 10:15:24;;;;;;;3.78;0.88;;;;;;;32.15;25.43;100813.06;5049157;28;20049;-66
2021/05/20 10:17:52;;;;;;;4.57;0.98;;;;;;;32.39;25.14;100809.38;5048252;28;20033;-65
2021/05/20 10:20:21;;;;;;;4.22;0.68;;;;;;;32.26;25.01;100805.81;5049035;28;20056;-65
2021/05/20 10:22:50;;;;;;;3.63;0.70;;;;;;;32.15;25.21;100805.75;5049114;28;20047;-65
2021/05/20 10:25:18;;;;;;;5.47;0.90;;;;;;;32.08;25.61;100804.41;5047325;28;20137;-66
2021/05/20 10:27:46;;;;;;;2.30;0.98;;;;;;;31.65;25.61;100793.84;5048256;28;20041;-65
2021/05/20 10:30:16;;;;;;;2.22;0.70;;;;;;;31.29;26.14;100804.63;5048735;28;20123;-66
2021/05/20 10:32:44;;;;;;;2.85;0.60;;;;;;;31.09;26.55;100807.88;5047214;28;20086;-65
2021/05/20 10:35:13;;;;;;;1.77;0.63;;;;;;;30.69;27.25;100801.50;5048760;28;20041;-66
2021/05/20 10:37:41;;;;;;;3.13;0.73;;;;;;;30.57;27.49;100796.88;5048147;28;20498;-65
2021/05/20 10:40:32;;;;;;;4.20;0.60;;;;;;;30.52;27.93;100797.19;5048396;28;20045;-65
2021/05/20 10:43:08;;;;;;;6.38;0.85;;;;;;;30.61;27.66;100788.38;5048800;28;20041;-65
2021/05/20 10:45:36;;;;;;;2.25;0.80;;;;;;;30.70;27.59;100786.88;5048112;28;20037;-64
2021/05/20 10:48:20;;;;;;;3.47;0.68;;;;;;;30.97;27.71;100784.13;5048322;28;20041;-65
2021/05/20 10:51:15;;;;;;;3.65;0.65;;;;;;;31.04;27.69;100790.91;5042475;28;20044;-65
2021/05/20 10:54:09;;;;;;;2.65;0.60;;;;;;;31.10;27.68;100790.53;5046137;28;20182;-65
2021/05/20 10:56:55;;;;;;;5.50;0.70;;;;;;;31.08;28.02;100792.47;5052141;28;20099;-65
2021/05/20 10:59:45;;;;;;;2.90;0.65;;;;;;;31.15;28.22;100782.88;5051287;28;20064;-65
2021/05/20 11:02:39;;;;;;;5.00;0.70;;;;;;;31.10;28.21;100788.66;5051144;28;20045;-65
2021/05/20 11:05:55;;;;;;;4.07;0.80;;;;;;;31.44;27.90;100784.41;5036757;28;20040;-65
2021/05/20 11:08:55;;;;;;;2.38;0.63;;;;;;;31.72;27.50;100782.50;5050394;28;20049;-65
2021/05/20 11:11:24;;;;;;;2.33;0.70;;;;;;;31.68;27.62;100787.31;5051966;28;20094;-65
2021/05/20 11:13:53;;;;;;;4.10;0.93;;;;;;;31.75;27.52;100787.75;5051865;28;20041;-65
2021/05/20 11:16:22;;;;;;;4.80;0.70;;;;;;;32.09;26.15;100778.84;5051556;28;20037;-65
2021/05/20 11:18:51;;;;;;;4.63;1.05;;;;;;;32.55;25.42;100789.97;5051937;28;20052;-65
2021/05/20 11:21:18;;;;;;;2.55;1.08;;;;;;;32.64;25.83;100785.66;5051516;28;20484;-65
2021/05/20 11:23:45;;;;;;;8.63;1.23;;;;;;;32.61;25.23;100796.84;5051911;28;20037;-66
2021/05/20 11:26:17;;;;;;;2.70;0.52;;;;;;;32.68;25.85;100789.94;5051455;28;20417;-65
2021/05/20 11:28:47;;;;;;;5.35;0.70;;;;;;;32.91;25.58;100796.38;5051511;28;20040;-65
2021/05/20 11:31:17;;;;;;;3.15;0.80;;;;;;;32.78;26.01;100796.44;5051669;28;20057;-66
2021/05/20 11:33:58;;;;;;;3.17;0.70;;;;;;;32.64;26.06;100799.31;5051685;28;20043;-66